createdAt,value
2018-09-09T00:02:02.672Z,83.68
2018-09-09T00:04:37.512Z,82.56
2018-09-09T00:07:12.208Z,82.04
2018-09-09T00:09:47.539Z,82.03
2018-09-09T00:12:22.885Z,82.75
2018-09-09T00:14:57.199Z,81.85
2018-09-09T00:17:31.684Z,81.26
2018-09-09T00:20:06.568Z,81.71
2018-09-09T00:22:41.209Z,81.76
2018-09-09T00:25:16.219Z,81.19
2018-09-09T00:27:50.704Z,80.97
2018-09-09T00:30:25.108Z,81.38
2018-09-09T00:32:59.392Z,81.03
2018-09-09T00:35:33.677Z,81.24
2018-09-09T00:38:08.207Z,80.85
2018-09-09T00:40:43.025Z,81.19
2018-09-09T00:43:17.844Z,81.60
2018-09-09T00:45:53.144Z,81.05
2018-09-09T00:48:27.812Z,81.27
2018-09-09T00:51:08.025Z,81.17
2018-09-09T00:53:43.264Z,81.53
2018-09-09T00:56:17.712Z,81.33
2018-09-09T00:58:52.611Z,81.48
2018-09-09T01:01:27.467Z,81.56
2018-09-09T01:04:02.068Z,81.17
2018-09-09T01:06:36.568Z,81.51
2018-09-09T01:09:12.040Z,81.54
2018-09-09T01:11:46.943Z,81.15
2018-09-09T01:14:21.556Z,81.48
2018-09-09T01:16:56.053Z,81.75
2018-09-09T01:19:30.467Z,81.55
2018-09-09T01:22:05.029Z,81.25
2018-09-09T01:24:39.781Z,81.32
2018-09-09T01:27:14.244Z,81.05
2018-09-09T01:29:48.971Z,81.87
2018-09-09T01:32:23.896Z,81.56
2018-09-09T01:34:58.300Z,81.48
2018-09-09T01:37:32.783Z,82.10
2018-09-09T01:40:07.420Z,82.46
2018-09-09T01:42:41.896Z,82.38
2018-09-09T01:45:16.178Z,84.07
2018-09-09T01:47:50.955Z,83.98
2018-09-09T01:50:25.724Z,83.98
2018-09-09T01:53:00.841Z,84.44
2018-09-09T01:55:35.220Z,83.99
2018-09-09T01:58:09.740Z,83.56
2018-09-09T02:00:44.376Z,82.24
2018-09-09T02:03:19.539Z,82.85
2018-09-09T02:05:54.168Z,83.92
2018-09-09T02:08:28.563Z,84.34
2018-09-09T02:11:03.156Z,83.77
2018-09-09T02:13:37.628Z,83.04
2018-09-09T02:16:12.084Z,83.87
2018-09-09T02:18:47.156Z,83.79
2018-09-09T02:21:21.663Z,83.21
2018-09-09T02:23:56.500Z,84.15
2018-09-09T02:26:30.913Z,83.97
2018-09-09T02:29:05.995Z,84.58
2018-09-09T02:31:40.384Z,84.31
2018-09-09T02:34:14.673Z,83.20
2018-09-09T02:36:49.283Z,82.60
2018-09-09T02:39:23.940Z,82.98
2018-09-09T02:41:58.376Z,83.21
2018-09-09T02:44:32.819Z,83.20
2018-09-09T02:47:07.111Z,82.29
2018-09-09T02:49:41.415Z,83.13
2018-09-09T02:52:16.155Z,83.16
2018-09-09T02:54:50.524Z,82.70
2018-09-09T02:57:25.156Z,82.50
2018-09-09T03:00:00.144Z,83.59
2018-09-09T03:02:34.567Z,83.55
2018-09-09T03:05:09.019Z,83.68
2018-09-09T03:07:43.456Z,84.15
2018-09-09T03:10:18.041Z,83.90
2018-09-09T03:12:52.420Z,83.70
2018-09-09T03:15:26.838Z,83.43
2018-09-09T03:18:01.513Z,83.82
2018-09-09T03:20:36.129Z,84.29
2018-09-09T03:23:10.591Z,83.25
2018-09-09T03:25:44.907Z,83.36
2018-09-09T03:28:19.365Z,83.69
2018-09-09T03:30:54.691Z,84.71
2018-09-09T03:33:29.095Z,84.64
2018-09-09T03:36:03.455Z,84.55
2018-09-09T03:38:38.009Z,84.26
2018-09-09T03:41:12.776Z,84.99
2018-09-09T03:43:47.415Z,84.55
2018-09-09T03:46:21.943Z,84.30
2018-09-09T03:48:56.367Z,83.92
2018-09-09T03:51:30.691Z,83.55
2018-09-09T03:54:05.475Z,82.61
2018-09-09T03:56:39.842Z,83.28
2018-09-09T03:59:14.222Z,82.80
2018-09-09T04:01:48.667Z,83.05
2018-09-09T04:04:22.967Z,83.16
2018-09-09T04:06:57.308Z,83.13
2018-09-09T04:09:31.573Z,82.97
2018-09-09T04:12:05.886Z,82.62
2018-09-09T04:14:40.748Z,83.18
2018-09-09T04:17:15.184Z,83.57
2018-09-09T04:19:49.616Z,84.26
2018-09-09T04:22:24.284Z,84.75
2018-09-09T04:24:58.772Z,85.12
2018-09-09T04:27:33.227Z,84.79
2018-09-09T04:30:07.718Z,84.12
2018-09-09T04:32:42.535Z,83.43
2018-09-09T04:35:17.225Z,83.06
2018-09-09T04:37:51.692Z,83.56
2018-09-09T04:40:26.012Z,83.56
2018-09-09T04:43:00.863Z,82.93
2018-09-09T04:45:35.995Z,83.05
2018-09-09T04:48:10.283Z,83.25
2018-09-09T04:50:44.707Z,83.21
2018-09-09T04:53:19.279Z,83.44
2018-09-09T04:55:53.964Z,83.70
2018-09-09T04:58:28.403Z,82.78
2018-09-09T05:01:03.091Z,83.22
2018-09-09T05:03:37.526Z,83.33
2018-09-09T05:06:12.624Z,83.13
2018-09-09T05:08:46.911Z,83.40
2018-09-09T05:11:21.612Z,83.31
2018-09-09T05:13:56.328Z,83.21
2018-09-09T05:16:30.825Z,83.48
2018-09-09T05:19:05.748Z,83.66
2018-09-09T05:21:40.489Z,83.79
2018-09-09T05:24:15.284Z,83.54
2018-09-09T05:26:49.872Z,83.66
2018-09-09T05:29:24.260Z,83.73
2018-09-09T05:31:59.511Z,83.44
2018-09-09T05:34:33.901Z,83.79
2018-09-09T05:37:08.428Z,83.61
2018-09-09T05:39:43.935Z,83.39
2018-09-09T05:42:18.807Z,84.07
2018-09-09T05:44:53.500Z,84.43
2018-09-09T05:47:27.865Z,84.62
2018-09-09T05:50:02.679Z,85.35
2018-09-09T05:52:37.111Z,85.31
2018-09-09T05:55:11.718Z,85.15
2018-09-09T05:57:46.833Z,84.92
2018-09-09T06:00:22.068Z,84.81
2018-09-09T06:02:56.508Z,85.17
2018-09-09T06:05:31.791Z,85.67
2018-09-09T06:08:06.545Z,85.95
2018-09-09T06:10:41.391Z,85.81
2018-09-09T06:13:16.041Z,85.43
2018-09-09T06:15:50.710Z,86.27
2018-09-09T06:18:31.849Z,85.67
2018-09-09T06:21:09.620Z,86.61
2018-09-09T06:23:44.296Z,86.33
2018-09-09T06:26:18.872Z,86.66
2018-09-09T06:28:53.421Z,86.99
2018-09-09T06:31:27.790Z,86.57
2018-09-09T06:34:02.208Z,86.76
2018-09-09T06:36:36.916Z,86.50
2018-09-09T06:39:12.324Z,86.49
2018-09-09T06:41:47.039Z,86.76
2018-09-09T06:44:21.556Z,86.94
2018-09-09T06:46:56.201Z,86.58
2018-09-09T06:49:30.997Z,86.26
2018-09-09T06:52:06.153Z,86.05
2018-09-09T06:54:40.549Z,86.35
2018-09-09T06:57:15.093Z,85.70
2018-09-09T06:59:49.875Z,85.52
2018-09-09T07:02:24.482Z,85.70
2018-09-09T07:04:59.332Z,85.48
2018-09-09T07:07:34.080Z,85.68
2018-09-09T07:10:08.575Z,85.00
2018-09-09T07:12:43.405Z,85.52
2018-09-09T07:15:17.813Z,84.70
2018-09-09T07:17:52.199Z,84.93
2018-09-09T07:20:27.136Z,84.88
2018-09-09T07:23:01.645Z,84.53
2018-09-09T07:25:36.036Z,84.32
2018-09-09T07:28:10.352Z,83.39
2018-09-09T07:30:44.846Z,83.17
2018-09-09T07:33:19.295Z,81.68
2018-09-09T07:35:53.802Z,82.15
2018-09-09T07:38:28.236Z,82.23
2018-09-09T07:41:02.603Z,82.54
2018-09-09T07:43:37.060Z,80.28
2018-09-09T07:46:11.456Z,79.20
2018-09-09T07:48:45.909Z,77.77
2018-09-09T07:51:20.549Z,79.27
2018-09-09T07:53:54.957Z,78.90
2018-09-09T07:56:29.464Z,77.08
2018-09-09T07:59:03.915Z,78.46
2018-09-09T08:01:38.332Z,77.47
2018-09-09T08:04:12.856Z,75.51
2018-09-09T08:06:47.260Z,77.16
2018-09-09T08:09:22.472Z,74.88
2018-09-09T08:11:56.981Z,70.68
2018-09-09T08:14:31.987Z,71.39
2018-09-09T08:17:06.713Z,69.74
2018-09-09T08:19:41.183Z,66.53
2018-09-09T08:22:15.508Z,71.12
2018-09-09T08:24:49.957Z,66.83
2018-09-09T08:27:24.299Z,70.00
2018-09-09T08:29:58.611Z,67.15
2018-09-09T08:32:33.156Z,66.75
2018-09-09T08:35:07.930Z,68.27
2018-09-09T08:37:42.483Z,65.08
2018-09-09T08:40:16.944Z,60.12
2018-09-09T08:42:54.689Z,56.19
2018-09-09T08:45:29.589Z,56.74
2018-09-09T08:48:05.123Z,62.93
2018-09-09T08:50:39.707Z,62.52
2018-09-09T08:53:14.257Z,61.44
2018-09-09T08:55:48.958Z,55.51
2018-09-09T08:58:23.777Z,60.13
2018-09-09T09:00:58.121Z,60.23
2018-09-09T09:03:32.559Z,59.00
2018-09-09T09:06:07.155Z,56.81
2018-09-09T09:08:41.873Z,57.19
2018-09-09T09:13:50.400Z,54.46
2018-09-09T09:16:24.859Z,49.22
2018-09-09T09:18:59.392Z,51.42
2018-09-09T09:21:34.573Z,49.12
2018-09-09T09:24:09.138Z,49.25
2018-09-09T09:26:44.628Z,49.52
2018-09-09T09:29:19.279Z,50.83
2018-09-09T09:31:54.128Z,47.54
2018-09-09T09:34:28.482Z,48.08
2018-09-09T09:37:03.316Z,49.00
2018-09-09T09:39:37.757Z,47.42
2018-09-09T09:42:12.239Z,49.13
2018-09-09T09:44:46.764Z,52.26
2018-09-09T09:47:21.470Z,47.18
2018-09-09T09:49:55.939Z,48.89
2018-09-09T09:52:33.625Z,48.80
2018-09-09T09:55:08.535Z,48.51
2018-09-09T09:57:43.313Z,47.86
2018-09-09T10:00:23.515Z,46.47
2018-09-09T10:02:58.500Z,46.11
2018-09-09T10:05:33.689Z,52.29
2018-09-09T10:08:09.468Z,51.49
2018-09-09T10:10:44.304Z,48.34
2018-09-09T10:13:18.774Z,45.93
2018-09-09T10:15:53.183Z,44.54
2018-09-09T10:18:27.837Z,45.36
2018-09-09T10:21:05.542Z,42.50
2018-09-09T10:23:42.474Z,43.83
2018-09-09T10:26:17.203Z,47.45
2018-09-09T10:28:51.624Z,43.05
2018-09-09T10:31:26.317Z,44.05
2018-09-09T10:34:00.834Z,42.01
2018-09-09T10:36:35.907Z,44.94
2018-09-09T10:39:11.579Z,38.96
2018-09-09T10:41:46.044Z,45.47
2018-09-09T10:44:20.429Z,43.61
2018-09-09T10:46:55.217Z,48.65
2018-09-09T10:49:30.038Z,44.54
2018-09-09T10:52:04.650Z,40.75
2018-09-09T10:54:38.904Z,44.88
2018-09-09T10:57:13.924Z,45.47
2018-09-09T10:59:49.020Z,40.56
2018-09-09T11:02:23.532Z,41.95
2018-09-09T11:04:59.234Z,42.46
2018-09-09T11:07:34.439Z,44.14
2018-09-09T11:10:08.838Z,41.17
2018-09-09T11:12:46.625Z,41.37
2018-09-09T11:15:25.051Z,37.93
2018-09-09T11:18:00.501Z,42.30
2018-09-09T11:20:35.040Z,39.06
2018-09-09T11:23:13.343Z,43.99
2018-09-09T11:25:48.213Z,41.62
2018-09-09T11:28:22.533Z,40.19
2018-09-09T11:30:57.052Z,37.77
2018-09-09T11:36:21.608Z,37.49
2018-09-09T11:38:57.100Z,40.43
2018-09-09T11:41:35.395Z,38.77
2018-09-09T11:44:10.400Z,40.25
2018-09-09T11:46:44.811Z,43.81
2018-09-09T11:49:25.902Z,42.29
2018-09-09T11:52:06.246Z,41.40
2018-09-09T11:54:42.830Z,42.85
2018-09-09T11:57:18.261Z,41.38
2018-09-09T12:02:35.412Z,39.34
2018-09-09T12:05:10.429Z,40.87
2018-09-09T12:07:45.101Z,42.71
2018-09-09T12:10:19.983Z,37.46
2018-09-09T12:12:55.208Z,43.19
2018-09-09T12:15:30.149Z,37.01
2018-09-09T12:18:04.793Z,41.36
2018-09-09T12:20:39.367Z,43.16
2018-09-09T12:23:13.980Z,37.36
2018-09-09T12:25:49.027Z,39.10
2018-09-09T12:28:23.564Z,37.51
2018-09-09T12:30:57.963Z,39.56
2018-09-09T12:33:34.638Z,39.80
2018-09-09T12:36:11.094Z,42.36
2018-09-09T12:38:51.958Z,40.27
2018-09-09T12:41:26.828Z,40.74
2018-09-09T12:46:10.063Z,42.19
2018-09-09T12:48:49.902Z,44.81
2018-09-09T12:51:24.871Z,46.37
2018-09-09T12:53:59.812Z,45.59
2018-09-09T12:56:35.432Z,38.04
2018-09-09T12:59:10.416Z,43.83
2018-09-09T13:01:44.744Z,45.14
2018-09-09T13:04:19.230Z,40.76
2018-09-09T13:06:53.829Z,37.71
2018-09-09T13:09:29.084Z,43.85
2018-09-09T13:12:03.821Z,43.34
2018-09-09T13:14:38.247Z,43.60
2018-09-09T13:17:12.529Z,42.65
2018-09-09T13:19:46.910Z,38.59
2018-09-09T13:22:21.353Z,41.24
2018-09-09T13:24:55.846Z,43.69
2018-09-09T13:27:30.228Z,42.07
2018-09-09T13:30:04.645Z,37.76
2018-09-09T13:32:40.070Z,38.18
2018-09-09T13:35:14.569Z,40.95
2018-09-09T13:37:49.189Z,42.43
2018-09-09T13:40:28.112Z,41.67
2018-09-09T13:43:03.936Z,43.47
2018-09-09T13:45:38.700Z,42.51
2018-09-09T13:48:13.765Z,42.71
2018-09-09T13:50:49.139Z,45.76
2018-09-09T13:53:24.546Z,48.10
2018-09-09T13:55:59.845Z,48.73
2018-09-09T13:58:34.644Z,44.28
2018-09-09T14:01:09.309Z,43.88
2018-09-09T14:03:44.202Z,40.92
2018-09-09T14:06:18.871Z,40.60
2018-09-09T14:08:53.461Z,39.72
2018-09-09T14:11:28.185Z,37.41
2018-09-09T14:14:03.068Z,41.34
2018-09-09T14:16:37.583Z,40.18
2018-09-09T14:19:12.200Z,41.74
2018-09-09T14:21:47.001Z,40.84
2018-09-09T14:24:21.520Z,42.65
2018-09-09T14:26:57.073Z,39.20
2018-09-09T14:29:31.876Z,41.49
2018-09-09T14:32:06.475Z,38.32
2018-09-09T14:34:41.149Z,41.29
2018-09-09T14:37:16.084Z,39.98
2018-09-09T14:39:50.653Z,40.16
2018-09-09T14:42:25.213Z,41.72
2018-09-09T14:44:59.812Z,44.23
2018-09-09T14:47:34.672Z,48.62
2018-09-09T14:50:10.100Z,44.85
2018-09-09T14:52:44.471Z,43.15
2018-09-09T14:55:19.040Z,42.14
2018-09-09T14:57:53.824Z,41.67
2018-09-09T15:00:29.010Z,44.36
2018-09-09T15:03:03.456Z,46.24
2018-09-09T15:05:38.254Z,44.49
2018-09-09T15:08:12.879Z,40.28
2018-09-09T15:10:47.476Z,39.68
2018-09-09T15:13:22.594Z,42.45
2018-09-09T15:15:57.289Z,41.24
2018-09-09T15:18:32.640Z,40.28
2018-09-09T15:21:07.015Z,44.37
2018-09-09T15:23:41.529Z,45.20
2018-09-09T15:26:16.372Z,45.00
2018-09-09T15:28:50.836Z,39.34
2018-09-09T15:31:25.383Z,42.67
2018-09-09T15:34:00.472Z,46.43
2018-09-09T15:36:34.759Z,42.32
2018-09-09T15:39:09.512Z,39.43
2018-09-09T15:41:51.543Z,41.03
2018-09-09T15:44:26.104Z,45.45
2018-09-09T15:47:03.449Z,43.28
2018-09-09T15:53:14.580Z,42.30
2018-09-09T15:55:49.571Z,42.68
2018-09-09T15:58:24.100Z,44.95
2018-09-09T16:00:58.941Z,41.47
2018-09-09T16:03:33.440Z,41.44
2018-09-09T16:06:08.126Z,41.48
2018-09-09T16:08:50.163Z,43.45
2018-09-09T16:11:24.931Z,44.19
2018-09-09T16:13:59.725Z,46.46
2018-09-09T16:16:34.445Z,44.69
2018-09-09T16:19:08.820Z,47.83
2018-09-09T16:21:43.529Z,50.10
2018-09-09T16:24:18.115Z,48.90
2018-09-09T16:26:53.052Z,47.73
2018-09-09T16:29:27.713Z,48.69
2018-09-09T16:32:02.394Z,46.37
2018-09-09T16:34:37.051Z,50.54
2018-09-09T16:37:11.989Z,51.74
2018-09-09T16:39:46.728Z,51.79
2018-09-09T16:42:21.261Z,49.36
2018-09-09T16:44:56.967Z,51.17
2018-09-09T16:47:32.735Z,53.60
2018-09-09T16:50:07.365Z,52.70
2018-09-09T16:52:42.456Z,54.55
2018-09-09T16:55:17.253Z,55.04
2018-09-09T16:57:53.758Z,57.54
2018-09-09T17:00:28.504Z,59.86
2018-09-09T17:03:04.618Z,59.10
2018-09-09T17:05:39.552Z,57.72
2018-09-09T17:08:14.050Z,58.22
2018-09-09T17:10:48.711Z,60.08
2018-09-09T17:13:24.434Z,61.76
2018-09-09T17:16:03.132Z,62.06
2018-09-09T17:18:38.156Z,61.57
2018-09-09T17:21:18.919Z,61.39
2018-09-09T17:23:53.737Z,63.35
2018-09-09T17:26:28.166Z,62.25
2018-09-09T17:29:03.693Z,63.77
2018-09-09T17:31:38.112Z,62.88
2018-09-09T17:34:12.561Z,62.98
2018-09-09T17:36:46.971Z,64.20
2018-09-09T17:39:21.384Z,64.09
2018-09-09T17:41:56.440Z,65.43
2018-09-09T17:44:31.229Z,64.43
2018-09-09T17:47:06.364Z,63.81
2018-09-09T17:49:40.663Z,63.75
2018-09-09T17:52:15.448Z,63.56
2018-09-09T17:54:49.972Z,64.17
2018-09-09T17:57:24.251Z,65.03
2018-09-09T17:59:59.045Z,65.49
2018-09-09T18:02:33.473Z,65.84
2018-09-09T18:05:09.088Z,65.71
2018-09-09T18:07:43.492Z,66.66
2018-09-09T18:10:18.157Z,67.02
2018-09-09T18:12:52.589Z,68.20
2018-09-09T18:15:27.154Z,68.56
2018-09-09T18:18:02.510Z,67.80
2018-09-09T18:20:37.323Z,67.80
2018-09-09T18:23:14.641Z,68.17
2018-09-09T18:25:50.713Z,68.58
2018-09-09T18:28:26.271Z,68.97
2018-09-09T18:31:02.491Z,68.98
2018-09-09T18:33:37.124Z,69.13
2018-09-09T18:36:12.016Z,69.36
2018-09-09T18:38:46.561Z,69.32
2018-09-09T18:41:21.984Z,69.81
2018-09-09T18:43:56.588Z,70.37
2018-09-09T18:46:31.135Z,69.87
2018-09-09T18:49:06.301Z,71.04
2018-09-09T18:51:42.613Z,70.46
2018-09-09T18:54:17.782Z,70.61
2018-09-09T18:56:52.842Z,71.10
2018-09-09T18:59:27.846Z,71.52
2018-09-09T19:02:03.163Z,72.31
2018-09-09T19:04:37.689Z,72.26
2018-09-09T19:07:12.256Z,72.19
2018-09-09T19:09:46.923Z,72.12
2018-09-09T19:12:21.343Z,72.17
2018-09-09T19:14:55.796Z,73.01
2018-09-09T19:17:30.240Z,72.44
2018-09-09T19:20:07.928Z,73.75
2018-09-09T19:22:42.424Z,73.11
2018-09-09T19:25:17.128Z,73.66
2018-09-09T19:27:51.905Z,73.52
2018-09-09T19:30:26.353Z,73.86
2018-09-09T19:33:00.707Z,73.92
2018-09-09T19:35:35.071Z,74.10
2018-09-09T19:38:09.500Z,73.81
2018-09-09T19:40:44.573Z,74.80
2018-09-09T19:43:19.016Z,74.80
2018-09-09T19:45:53.728Z,74.10
2018-09-09T19:48:28.400Z,74.71
2018-09-09T19:51:03.291Z,74.64
2018-09-09T19:53:41.773Z,74.70
2018-09-09T19:56:17.245Z,75.33
2018-09-09T19:58:52.080Z,76.01
2018-09-09T20:01:27.057Z,75.95
2018-09-09T20:04:01.567Z,76.27
2018-09-09T20:06:36.184Z,76.57
2018-09-09T20:09:11.709Z,75.86
2018-09-09T20:11:46.828Z,76.00
2018-09-09T20:14:21.465Z,75.73
2018-09-09T20:16:56.001Z,75.36
2018-09-09T20:19:30.936Z,76.06
2018-09-09T20:22:08.075Z,76.74
2018-09-09T20:24:42.397Z,76.54
2018-09-09T20:27:16.831Z,76.11
2018-09-09T20:29:51.122Z,76.06
2018-09-09T20:32:25.502Z,76.04
2018-09-09T20:34:59.993Z,76.36
2018-09-09T20:37:34.442Z,76.79
2018-09-09T20:40:09.460Z,76.95
2018-09-09T20:42:44.232Z,77.00
2018-09-09T20:45:18.796Z,76.27
2018-09-09T20:47:53.333Z,76.87
2018-09-09T20:50:27.976Z,77.88
2018-09-09T20:53:02.816Z,77.57
2018-09-09T20:55:37.245Z,78.02
2018-09-09T20:58:14.166Z,77.62
2018-09-09T21:00:48.734Z,77.90
2018-09-09T21:03:24.062Z,77.69
2018-09-09T21:05:58.888Z,77.44
2018-09-09T21:08:38.112Z,77.33
2018-09-09T21:11:13.118Z,77.67
2018-09-09T21:13:55.270Z,77.42
2018-09-09T21:16:30.162Z,77.98
2018-09-09T21:19:05.085Z,77.72
2018-09-09T21:21:40.338Z,78.02
2018-09-09T21:24:15.610Z,78.13
2018-09-09T21:26:51.452Z,77.86
2018-09-09T21:29:26.054Z,77.75
2018-09-09T21:32:00.795Z,78.15
2018-09-09T21:34:35.569Z,78.93
2018-09-09T21:37:11.866Z,78.45
2018-09-09T21:39:46.761Z,79.26
2018-09-09T21:42:21.176Z,78.93
2018-09-09T21:44:55.970Z,78.25
2018-09-09T21:47:30.668Z,78.80
2018-09-09T21:50:05.434Z,78.23
2018-09-09T21:52:40.068Z,78.45
2018-09-09T21:55:14.717Z,78.55
2018-09-09T21:57:49.138Z,78.33
2018-09-09T22:00:23.499Z,78.39
2018-09-09T22:02:58.297Z,78.59
2018-09-09T22:05:32.687Z,79.06
2018-09-09T22:08:07.082Z,79.56
2018-09-09T22:10:41.509Z,78.54
2018-09-09T22:13:15.932Z,79.08
2018-09-09T22:15:54.446Z,78.80
2018-09-09T22:18:29.025Z,79.66
2018-09-09T22:21:03.863Z,79.75
2018-09-09T22:23:39.562Z,78.87
2018-09-09T22:26:16.436Z,78.79
2018-09-09T22:28:51.575Z,78.77
2018-09-09T22:31:25.973Z,79.00
2018-09-09T22:34:00.248Z,78.53
2018-09-09T22:36:34.677Z,79.25
2018-09-09T22:39:11.028Z,78.71
2018-09-09T22:41:45.717Z,79.64
2018-09-09T22:44:22.232Z,79.41
2018-09-09T22:46:58.006Z,79.78
2018-09-09T22:49:32.410Z,80.16
2018-09-09T22:52:07.794Z,79.78
2018-09-09T22:54:42.088Z,80.11
2018-09-09T22:57:19.295Z,80.63
2018-09-09T22:59:53.777Z,80.90
2018-09-09T23:02:28.528Z,81.03
2018-09-09T23:05:03.004Z,80.31
2018-09-09T23:07:37.807Z,80.63
2018-09-09T23:10:13.626Z,81.05
2018-09-09T23:12:48.080Z,81.05
2018-09-09T23:15:26.398Z,80.68
2018-09-09T23:18:01.071Z,81.35
2018-09-09T23:20:35.569Z,81.12
2018-09-09T23:23:10.435Z,81.04
2018-09-09T23:25:44.805Z,80.99
2018-09-09T23:28:19.587Z,80.84
2018-09-09T23:30:54.324Z,80.49
2018-09-09T23:33:28.988Z,80.22
2018-09-09T23:36:03.388Z,80.31
2018-09-09T23:38:38.449Z,80.66
2018-09-09T23:41:13.185Z,81.15
2018-09-09T23:43:47.667Z,80.81
2018-09-09T23:46:22.388Z,81.03
2018-09-09T23:48:56.631Z,80.72
2018-09-09T23:51:31.116Z,81.39
2018-09-09T23:54:05.775Z,81.44
2018-09-09T23:56:40.532Z,80.92
2018-09-09T23:59:15.284Z,80.31
